sensor_id;sensor_type;location;lat;lon;timestamp;pressure;altitude;pressure_sealevel;temperature;humidity
10135;BME280;5107;48.850;8.924;2023-12-14T00:01:17;95724.41;;;6.63;94.25
10135;BME280;5107;48.850;8.924;2023-12-14T00:03:42;95731.78;;;6.60;94.73
10135;BME280;5107;48.850;8.924;2023-12-14T00:06:11;95724.31;;;6.48;94.68
10135;BME280;5107;48.850;8.924;2023-12-14T00:08:36;95729.44;;;6.34;95.09
10135;BME280;5107;48.850;8.924;2023-12-14T00:11:05;95731.25;;;6.25;95.42
10135;BME280;5107;48.850;8.924;2023-12-14T00:13:33;95736.47;;;6.25;96.26
10135;BME280;5107;48.850;8.924;2023-12-14T00:15:58;95735.78;;;6.31;97.25
10135;BME280;5107;48.850;8.924;2023-12-14T00:18:24;95738.59;;;6.22;96.73
10135;BME280;5107;48.850;8.924;2023-12-14T00:20:50;95745.31;;;6.16;96.90
10135;BME280;5107;48.850;8.924;2023-12-14T00:23:16;95750.19;;;6.11;97.06
10135;BME280;5107;48.850;8.924;2023-12-14T00:25:42;95750.53;;;6.16;97.20
10135;BME280;5107;48.850;8.924;2023-12-14T00:28:07;95745.63;;;6.13;97.75
10135;BME280;5107;48.850;8.924;2023-12-14T00:30:32;95756.75;;;6.07;97.31
10135;BME280;5107;48.850;8.924;2023-12-14T00:32:58;95761.47;;;6.03;97.83
10135;BME280;5107;48.850;8.924;2023-12-14T00:35:23;95754.25;;;6.22;99.11
10135;BME280;5107;48.850;8.924;2023-12-14T00:37:48;95753.16;;;6.16;98.09
10135;BME280;5107;48.850;8.924;2023-12-14T00:40:14;95759.50;;;6.14;97.55
10135;BME280;5107;48.850;8.924;2023-12-14T00:42:39;95760.47;;;6.13;97.66
10135;BME280;5107;48.850;8.924;2023-12-14T00:45:04;95759.66;;;6.12;97.42
10135;BME280;5107;48.850;8.924;2023-12-14T00:47:30;95772.56;;;6.14;98.00
10135;BME280;5107;48.850;8.924;2023-12-14T00:49:55;95768.16;;;6.06;97.33
10135;BME280;5107;48.850;8.924;2023-12-14T00:52:21;95770.78;;;6.06;98.53
10135;BME280;5107;48.850;8.924;2023-12-14T00:54:46;95774.06;;;6.08;97.67
10135;BME280;5107;48.850;8.924;2023-12-14T00:57:11;95785.63;;;6.05;98.18
10135;BME280;5107;48.850;8.924;2023-12-14T00:59:37;95786.44;;;6.14;98.25
10135;BME280;5107;48.850;8.924;2023-12-14T01:02:02;95788.22;;;6.14;98.83
10135;BME280;5107;48.850;8.924;2023-12-14T01:04:28;95786.59;;;6.13;98.79
10135;BME280;5107;48.850;8.924;2023-12-14T01:06:53;95796.84;;;6.30;98.32
10135;BME280;5107;48.850;8.924;2023-12-14T01:09:18;95796.84;;;6.38;98.52
10135;BME280;5107;48.850;8.924;2023-12-14T01:11:44;95800.09;;;6.40;97.69
10135;BME280;5107;48.850;8.924;2023-12-14T01:14:09;95808.91;;;6.47;96.58
10135;BME280;5107;48.850;8.924;2023-12-14T01:16:35;95811.66;;;6.54;94.85
10135;BME280;5107;48.850;8.924;2023-12-14T01:19:00;95820.81;;;6.58;94.84
10135;BME280;5107;48.850;8.924;2023-12-14T01:21:26;95822.94;;;6.55;95.03
10135;BME280;5107;48.850;8.924;2023-12-14T01:23:51;95835.03;;;6.56;93.74
10135;BME280;5107;48.850;8.924;2023-12-14T01:26:17;95836.16;;;6.53;93.47
10135;BME280;5107;48.850;8.924;2023-12-14T01:28:43;95840.91;;;6.50;94.04
10135;BME280;5107;48.850;8.924;2023-12-14T01:31:09;95843.53;;;6.50;93.20
10135;BME280;5107;48.850;8.924;2023-12-14T01:33:34;95851.69;;;6.46;93.90
10135;BME280;5107;48.850;8.924;2023-12-14T01:36:00;95852.50;;;6.47;94.15
10135;BME280;5107;48.850;8.924;2023-12-14T01:41:03;95858.56;;;6.23;96.17
10135;BME280;5107;48.850;8.924;2023-12-14T01:43:29;95862.47;;;6.11;96.82
10135;BME280;5107;48.850;8.924;2023-12-14T01:45:54;95863.31;;;6.03;97.77
10135;BME280;5107;48.850;8.924;2023-12-14T01:48:20;95867.06;;;6.01;99.14
10135;BME280;5107;48.850;8.924;2023-12-14T01:50:45;95870.97;;;5.97;99.46
10135;BME280;5107;48.850;8.924;2023-12-14T01:53:13;95865.44;;;6.00;99.14
10135;BME280;5107;48.850;8.924;2023-12-14T01:55:39;95875.22;;;6.14;98.88
10135;BME280;5107;48.850;8.924;2023-12-14T01:58:05;95872.47;;;6.16;98.01
10135;BME280;5107;48.850;8.924;2023-12-14T02:01:08;95873.94;;;6.18;96.70
10135;BME280;5107;48.850;8.924;2023-12-14T02:03:44;95880.13;;;6.41;96.02
10135;BME280;5107;48.850;8.924;2023-12-14T02:06:10;95884.50;;;6.57;94.18
10135;BME280;5107;48.850;8.924;2023-12-14T02:08:35;95891.19;;;6.68;94.09
10135;BME280;5107;48.850;8.924;2023-12-14T02:11:00;95886.63;;;6.54;94.45
10135;BME280;5107;48.850;8.924;2023-12-14T02:13:26;95889.75;;;6.49;94.43
10135;BME280;5107;48.850;8.924;2023-12-14T02:15:52;95890.22;;;6.61;94.90
10135;BME280;5107;48.850;8.924;2023-12-14T02:18:18;95891.03;;;6.61;94.44
10135;BME280;5107;48.850;8.924;2023-12-14T02:20:44;95899.03;;;6.68;93.81
10135;BME280;5107;48.850;8.924;2023-12-14T02:23:09;95902.13;;;6.63;94.37
10135;BME280;5107;48.850;8.924;2023-12-14T02:25:34;95900.00;;;6.67;94.79
10135;BME280;5107;48.850;8.924;2023-12-14T02:28:00;95899.34;;;6.73;94.86
10135;BME280;5107;48.850;8.924;2023-12-14T02:30:26;95895.25;;;6.78;94.16
10135;BME280;5107;48.850;8.924;2023-12-14T02:32:51;95903.28;;;6.77;94.49
10135;BME280;5107;48.850;8.924;2023-12-14T02:35:16;95905.06;;;6.76;93.47
10135;BME280;5107;48.850;8.924;2023-12-14T02:37:43;95904.72;;;6.71;94.14
10135;BME280;5107;48.850;8.924;2023-12-14T02:40:10;95916.16;;;6.70;94.46
10135;BME280;5107;48.850;8.924;2023-12-14T02:42:36;95918.63;;;6.72;94.90
10135;BME280;5107;48.850;8.924;2023-12-14T02:45:02;95914.38;;;6.71;95.27
10135;BME280;5107;48.850;8.924;2023-12-14T02:47:29;95915.34;;;6.62;95.39
10135;BME280;5107;48.850;8.924;2023-12-14T02:49:55;95917.66;;;6.65;94.35
10135;BME280;5107;48.850;8.924;2023-12-14T02:52:21;95920.09;;;6.66;94.00
10135;BME280;5107;48.850;8.924;2023-12-14T02:54:55;95922.56;;;6.68;94.65
10135;BME280;5107;48.850;8.924;2023-12-14T02:57:21;95927.78;;;6.68;94.69
10135;BME280;5107;48.850;8.924;2023-12-14T02:59:46;95935.13;;;6.64;93.80
10135;BME280;5107;48.850;8.924;2023-12-14T03:02:18;95935.63;;;6.60;94.36
10135;BME280;5107;48.850;8.924;2023-12-14T03:04:43;95934.16;;;6.49;94.01
10135;BME280;5107;48.850;8.924;2023-12-14T03:07:09;95933.66;;;6.37;95.13
10135;BME280;5107;48.850;8.924;2023-12-14T03:09:34;95948.72;;;6.35;95.89
10135;BME280;5107;48.850;8.924;2023-12-14T03:12:00;95947.88;;;6.27;95.73
10135;BME280;5107;48.850;8.924;2023-12-14T03:14:32;95942.16;;;6.23;96.75
10135;BME280;5107;48.850;8.924;2023-12-14T03:17:00;95953.75;;;6.29;96.90
10135;BME280;5107;48.850;8.924;2023-12-14T03:19:26;95946.41;;;6.32;96.69
10135;BME280;5107;48.850;8.924;2023-12-14T03:21:55;95954.91;;;6.34;96.34
10135;BME280;5107;48.850;8.924;2023-12-14T03:24:20;95962.91;;;6.41;96.72
10135;BME280;5107;48.850;8.924;2023-12-14T03:26:46;95962.75;;;6.42;95.85
10135;BME280;5107;48.850;8.924;2023-12-14T03:29:16;95968.28;;;6.47;95.80
10135;BME280;5107;48.850;8.924;2023-12-14T03:31:42;95966.50;;;6.56;96.01
10135;BME280;5107;48.850;8.924;2023-12-14T03:34:10;95969.94;;;6.48;95.66
10135;BME280;5107;48.850;8.924;2023-12-14T03:36:35;95979.72;;;6.63;95.92
10135;BME280;5107;48.850;8.924;2023-12-14T03:39:00;95982.19;;;6.64;94.90
10135;BME280;5107;48.850;8.924;2023-12-14T03:41:26;95987.72;;;6.61;95.21
10135;BME280;5107;48.850;8.924;2023-12-14T03:43:52;95989.53;;;6.53;95.92
10135;BME280;5107;48.850;8.924;2023-12-14T03:46:17;95991.00;;;6.55;95.95
10135;BME280;5107;48.850;8.924;2023-12-14T03:48:45;95992.63;;;6.48;96.26
10135;BME280;5107;48.850;8.924;2023-12-14T03:51:10;95993.44;;;6.48;96.40
10135;BME280;5107;48.850;8.924;2023-12-14T03:53:36;96004.72;;;6.41;97.07
10135;BME280;5107;48.850;8.924;2023-12-14T03:56:04;96004.72;;;6.57;96.46
10135;BME280;5107;48.850;8.924;2023-12-14T03:58:37;96011.75;;;6.48;95.49
10135;BME280;5107;48.850;8.924;2023-12-14T04:01:02;96017.94;;;6.56;95.77
10135;BME280;5107;48.850;8.924;2023-12-14T04:03:28;96024.00;;;6.56;95.17
10135;BME280;5107;48.850;8.924;2023-12-14T04:05:58;96028.06;;;6.51;96.14
10135;BME280;5107;48.850;8.924;2023-12-14T04:08:24;96029.38;;;6.46;96.01
10135;BME280;5107;48.850;8.924;2023-12-14T04:10:50;96035.25;;;6.40;96.39
10135;BME280;5107;48.850;8.924;2023-12-14T04:13:15;96045.53;;;6.34;97.09
10135;BME280;5107;48.850;8.924;2023-12-14T04:15:41;96043.72;;;6.34;97.50
10135;BME280;5107;48.850;8.924;2023-12-14T04:18:07;96049.94;;;6.33;98.06
10135;BME280;5107;48.850;8.924;2023-12-14T04:20:33;96054.19;;;6.34;98.80
10135;BME280;5107;48.850;8.924;2023-12-14T04:22:59;96049.09;;;6.33;99.27
10135;BME280;5107;48.850;8.924;2023-12-14T04:25:24;96053.22;;;6.43;99.45
10135;BME280;5107;48.850;8.924;2023-12-14T04:27:50;96058.47;;;6.60;98.17
10135;BME280;5107;48.850;8.924;2023-12-14T04:30:15;96055.06;;;6.92;95.80
10135;BME280;5107;48.850;8.924;2023-12-14T04:32:41;96062.91;;;7.00;94.10
10135;BME280;5107;48.850;8.924;2023-12-14T04:35:07;96075.16;;;7.07;93.44
10135;BME280;5107;48.850;8.924;2023-12-14T04:37:32;96067.97;;;7.09;93.33
10135;BME280;5107;48.850;8.924;2023-12-14T04:39:59;96076.44;;;7.11;93.04
10135;BME280;5107;48.850;8.924;2023-12-14T04:42:24;96083.97;;;7.06;93.07
10135;BME280;5107;48.850;8.924;2023-12-14T04:44:50;96093.78;;;7.12;93.88
10135;BME280;5107;48.850;8.924;2023-12-14T04:47:15;96096.25;;;7.06;93.68
10135;BME280;5107;48.850;8.924;2023-12-14T04:49:41;96089.88;;;7.08;94.67
10135;BME280;5107;48.850;8.924;2023-12-14T04:52:07;96101.63;;;7.04;94.26
10135;BME280;5107;48.850;8.924;2023-12-14T04:54:33;96102.13;;;7.00;94.74
10135;BME280;5107;48.850;8.924;2023-12-14T04:57:00;96101.00;;;7.02;95.53
10135;BME280;5107;48.850;8.924;2023-12-14T04:59:25;96104.22;;;6.80;96.02
10135;BME280;5107;48.850;8.924;2023-12-14T05:01:51;96113.72;;;6.89;95.10
10135;BME280;5107;48.850;8.924;2023-12-14T05:04:22;96107.19;;;6.85;95.06
10135;BME280;5107;48.850;8.924;2023-12-14T05:06:50;96106.84;;;6.80;95.84
10135;BME280;5107;48.850;8.924;2023-12-14T05:09:16;96122.22;;;6.83;95.62
10135;BME280;5107;48.850;8.924;2023-12-14T05:11:41;96120.41;;;6.83;95.38
10135;BME280;5107;48.850;8.924;2023-12-14T05:14:09;96119.09;;;6.79;95.64
10135;BME280;5107;48.850;8.924;2023-12-14T05:16:35;96126.44;;;6.68;96.52
10135;BME280;5107;48.850;8.924;2023-12-14T05:19:00;96130.34;;;6.64;96.98
10135;BME280;5107;48.850;8.924;2023-12-14T05:21:29;96134.28;;;6.68;97.28
10135;BME280;5107;48.850;8.924;2023-12-14T05:23:54;96143.91;;;6.59;97.70
10135;BME280;5107;48.850;8.924;2023-12-14T05:26:19;96148.47;;;6.57;98.61
10135;BME280;5107;48.850;8.924;2023-12-14T05:28:45;96148.94;;;6.53;98.94
10135;BME280;5107;48.850;8.924;2023-12-14T05:31:10;96159.72;;;6.50;99.35
10135;BME280;5107;48.850;8.924;2023-12-14T05:33:39;96161.00;;;6.45;100.00
10135;BME280;5107;48.850;8.924;2023-12-14T05:36:05;96165.38;;;6.45;100.00
10135;BME280;5107;48.850;8.924;2023-12-14T05:38:34;96173.91;;;6.47;100.00
10135;BME280;5107;48.850;8.924;2023-12-14T05:41:00;96175.09;;;6.53;100.00
10135;BME280;5107;48.850;8.924;2023-12-14T05:43:25;96176.22;;;6.50;100.00
10135;BME280;5107;48.850;8.924;2023-12-14T05:45:51;96181.63;;;6.57;100.00
10135;BME280;5107;48.850;8.924;2023-12-14T05:48:16;96188.19;;;6.61;100.00
10135;BME280;5107;48.850;8.924;2023-12-14T05:50:41;96191.44;;;6.63;100.00
10135;BME280;5107;48.850;8.924;2023-12-14T05:53:07;96200.88;;;6.56;100.00
10135;BME280;5107;48.850;8.924;2023-12-14T05:55:32;96192.72;;;6.51;100.00
10135;BME280;5107;48.850;8.924;2023-12-14T05:57:58;96208.06;;;6.54;100.00
10135;BME280;5107;48.850;8.924;2023-12-14T06:00:26;96204.16;;;6.58;100.00
10135;BME280;5107;48.850;8.924;2023-12-14T06:02:52;96217.56;;;6.63;100.00
10135;BME280;5107;48.850;8.924;2023-12-14T06:05:17;96212.34;;;6.63;100.00
10135;BME280;5107;48.850;8.924;2023-12-14T06:07:42;96220.31;;;7.03;100.00
10135;BME280;5107;48.850;8.924;2023-12-14T06:10:10;96220.03;;;7.79;100.00
10135;BME280;5107;48.850;8.924;2023-12-14T06:12:35;96220.50;;;8.15;100.00
10135;BME280;5107;48.850;8.924;2023-12-14T06:15:00;96223.00;;;7.92;94.74
10135;BME280;5107;48.850;8.924;2023-12-14T06:17:26;96224.00;;;7.83;94.09
10135;BME280;5107;48.850;8.924;2023-12-14T06:19:52;96225.94;;;7.81;94.17
10135;BME280;5107;48.850;8.924;2023-12-14T06:22:17;96235.59;;;7.65;94.45
10135;BME280;5107;48.850;8.924;2023-12-14T06:24:43;96238.72;;;7.52;95.67
10135;BME280;5107;48.850;8.924;2023-12-14T06:27:08;96231.84;;;7.51;96.41
10135;BME280;5107;48.850;8.924;2023-12-14T06:29:34;96243.59;;;7.47;95.69
10135;BME280;5107;48.850;8.924;2023-12-14T06:31:59;96253.25;;;7.46;96.14
10135;BME280;5107;48.850;8.924;2023-12-14T06:34:24;96255.72;;;7.56;95.98
10135;BME280;5107;48.850;8.924;2023-12-14T06:36:50;96250.31;;;7.49;95.55
10135;BME280;5107;48.850;8.924;2023-12-14T06:39:15;96261.59;;;7.42;95.81
10135;BME280;5107;48.850;8.924;2023-12-14T06:41:41;96262.56;;;7.33;96.98
10135;BME280;5107;48.850;8.924;2023-12-14T06:44:06;96263.69;;;7.30;97.46
10135;BME280;5107;48.850;8.924;2023-12-14T06:46:34;96268.94;;;7.30;97.96
10135;BME280;5107;48.850;8.924;2023-12-14T06:49:00;96270.41;;;7.24;97.26
10135;BME280;5107;48.850;8.924;2023-12-14T06:51:25;96268.75;;;7.23;98.06
10135;BME280;5107;48.850;8.924;2023-12-14T06:53:50;96275.94;;;7.21;98.08
10135;BME280;5107;48.850;8.924;2023-12-14T06:56:16;96284.31;;;7.25;97.92
10135;BME280;5107;48.850;8.924;2023-12-14T06:58:43;96292.63;;;7.20;97.63
10135;BME280;5107;48.850;8.924;2023-12-14T07:01:13;96298.09;;;7.51;100.00
10135;BME280;5107;48.850;8.924;2023-12-14T07:03:43;96300.59;;;7.93;100.00
10135;BME280;5107;48.850;8.924;2023-12-14T07:06:12;96314.81;;;7.67;100.00
10135;BME280;5107;48.850;8.924;2023-12-14T07:08:39;96324.13;;;7.61;97.37
10135;BME280;5107;48.850;8.924;2023-12-14T07:11:04;96323.78;;;7.48;96.92
10135;BME280;5107;48.850;8.924;2023-12-14T07:13:30;96328.00;;;7.41;96.93
10135;BME280;5107;48.850;8.924;2023-12-14T07:15:55;96336.84;;;7.40;97.38
10135;BME280;5107;48.850;8.924;2023-12-14T07:18:21;96344.66;;;7.32;97.73
10135;BME280;5107;48.850;8.924;2023-12-14T07:20:46;96342.16;;;7.22;97.97
10135;BME280;5107;48.850;8.924;2023-12-14T07:23:11;96345.75;;;7.21;99.43
10135;BME280;5107;48.850;8.924;2023-12-14T07:25:37;96356.06;;;7.22;99.39
10135;BME280;5107;48.850;8.924;2023-12-14T07:28:02;96361.94;;;7.16;99.65
10135;BME280;5107;48.850;8.924;2023-12-14T07:30:27;96373.78;;;7.37;98.65
10135;BME280;5107;48.850;8.924;2023-12-14T07:32:53;96378.50;;;7.25;99.47
10135;BME280;5107;48.850;8.924;2023-12-14T07:35:18;96379.50;;;7.32;99.34
10135;BME280;5107;48.850;8.924;2023-12-14T07:37:44;96382.97;;;7.41;99.13
10135;BME280;5107;48.850;8.924;2023-12-14T07:40:10;96393.50;;;7.57;100.00
10135;BME280;5107;48.850;8.924;2023-12-14T07:42:35;96387.88;;;8.02;100.00
10135;BME280;5107;48.850;8.924;2023-12-14T07:45:01;96390.69;;;8.41;100.00
10135;BME280;5107;48.850;8.924;2023-12-14T07:47:29;96388.25;;;8.31;100.00
10135;BME280;5107;48.850;8.924;2023-12-14T07:49:54;96384.75;;;8.15;95.22
10135;BME280;5107;48.850;8.924;2023-12-14T07:52:20;96391.47;;;8.09;94.30
10135;BME280;5107;48.850;8.924;2023-12-14T07:54:46;96395.72;;;8.02;94.37
10135;BME280;5107;48.850;8.924;2023-12-14T07:57:11;96395.53;;;7.95;93.60
10135;BME280;5107;48.850;8.924;2023-12-14T07:59:37;96405.34;;;7.77;93.77
10135;BME280;5107;48.850;8.924;2023-12-14T08:02:05;96415.88;;;8.10;99.38
10135;BME280;5107;48.850;8.924;2023-12-14T08:04:34;96419.28;;;7.86;96.51
10135;BME280;5107;48.850;8.924;2023-12-14T08:06:59;96427.63;;;7.89;95.40
10135;BME280;5107;48.850;8.924;2023-12-14T08:09:25;96428.63;;;7.96;95.41
10135;BME280;5107;48.850;8.924;2023-12-14T08:11:50;96430.19;;;8.31;98.74
10135;BME280;5107;48.850;8.924;2023-12-14T08:14:20;96438.88;;;8.32;95.10
10135;BME280;5107;48.850;8.924;2023-12-14T08:16:46;96444.09;;;8.32;92.94
10135;BME280;5107;48.850;8.924;2023-12-14T08:19:11;96441.50;;;8.32;93.35
10135;BME280;5107;48.850;8.924;2023-12-14T08:21:36;96455.44;;;8.73;96.51
10135;BME280;5107;48.850;8.924;2023-12-14T08:24:02;96451.16;;;8.56;92.64
10135;BME280;5107;48.850;8.924;2023-12-14T08:26:40;96457.22;;;8.40;91.86
10135;BME280;5107;48.850;8.924;2023-12-14T08:29:05;96465.34;;;8.21;92.21
10135;BME280;5107;48.850;8.924;2023-12-14T08:31:31;96466.97;;;8.14;92.65
10135;BME280;5107;48.850;8.924;2023-12-14T08:34:01;96474.00;;;8.05;92.90
10135;BME280;5107;48.850;8.924;2023-12-14T08:36:28;96481.97;;;7.95;94.28
10135;BME280;5107;48.850;8.924;2023-12-14T08:38:53;96482.97;;;7.86;94.44
10135;BME280;5107;48.850;8.924;2023-12-14T08:41:19;96494.41;;;7.85;95.04
10135;BME280;5107;48.850;8.924;2023-12-14T08:43:44;96501.91;;;7.80;95.10
10135;BME280;5107;48.850;8.924;2023-12-14T08:46:10;96504.53;;;7.80;95.89
10135;BME280;5107;48.850;8.924;2023-12-14T08:48:35;96509.13;;;7.78;95.41
10135;BME280;5107;48.850;8.924;2023-12-14T08:51:01;96511.06;;;7.76;96.33
10135;BME280;5107;48.850;8.924;2023-12-14T08:53:32;96520.38;;;7.79;96.24
10135;BME280;5107;48.850;8.924;2023-12-14T08:56:18;96527.47;;;7.78;95.62
10135;BME280;5107;48.850;8.924;2023-12-14T08:58:46;96531.34;;;7.74;95.99
10135;BME280;5107;48.850;8.924;2023-12-14T09:01:11;96540.81;;;7.67;96.56
10135;BME280;5107;48.850;8.924;2023-12-14T09:03:37;96542.94;;;7.72;96.96
10135;BME280;5107;48.850;8.924;2023-12-14T09:06:07;96547.22;;;7.73;96.61
10135;BME280;5107;48.850;8.924;2023-12-14T09:08:43;96553.28;;;7.73;96.82
10135;BME280;5107;48.850;8.924;2023-12-14T09:11:08;96565.41;;;7.74;97.23
10135;BME280;5107;48.850;8.924;2023-12-14T09:13:43;96565.09;;;7.77;96.69
10135;BME280;5107;48.850;8.924;2023-12-14T09:16:08;96562.81;;;7.82;96.59
10135;BME280;5107;48.850;8.924;2023-12-14T09:18:34;96566.78;;;7.86;96.27
10135;BME280;5107;48.850;8.924;2023-12-14T09:20:59;96565.78;;;7.87;95.60
10135;BME280;5107;48.850;8.924;2023-12-14T09:23:25;96575.94;;;7.90;95.71
10135;BME280;5107;48.850;8.924;2023-12-14T09:25:50;96582.00;;;7.91;95.91
10135;BME280;5107;48.850;8.924;2023-12-14T09:28:16;96585.91;;;7.87;95.78
10135;BME280;5107;48.850;8.924;2023-12-14T09:30:41;96593.28;;;7.83;95.26
10135;BME280;5107;48.850;8.924;2023-12-14T09:33:07;96600.63;;;8.14;100.00
10135;BME280;5107;48.850;8.924;2023-12-14T09:35:34;96601.09;;;8.09;98.50
10135;BME280;5107;48.850;8.924;2023-12-14T09:38:02;96606.44;;;7.99;96.56
10135;BME280;5107;48.850;8.924;2023-12-14T09:40:27;96607.94;;;8.02;95.19
10135;BME280;5107;48.850;8.924;2023-12-14T09:42:54;96606.31;;;8.01;94.50
10135;BME280;5107;48.850;8.924;2023-12-14T09:45:23;96608.59;;;8.04;95.05
10135;BME280;5107;48.850;8.924;2023-12-14T09:47:49;96604.16;;;8.05;95.08
10135;BME280;5107;48.850;8.924;2023-12-14T09:50:14;96612.72;;;8.07;94.60
10135;BME280;5107;48.850;8.924;2023-12-14T09:52:41;96616.31;;;8.06;94.47
10135;BME280;5107;48.850;8.924;2023-12-14T09:55:14;96612.41;;;8.10;95.29
10135;BME280;5107;48.850;8.924;2023-12-14T09:57:39;96623.41;;;8.21;95.99
10135;BME280;5107;48.850;8.924;2023-12-14T10:00:05;96623.44;;;8.29;94.85
10135;BME280;5107;48.850;8.924;2023-12-14T10:02:35;96630.47;;;8.63;94.81
10135;BME280;5107;48.850;8.924;2023-12-14T10:05:00;96628.25;;;8.84;92.48
10135;BME280;5107;48.850;8.924;2023-12-14T10:07:26;96629.91;;;8.85;92.32
10135;BME280;5107;48.850;8.924;2023-12-14T10:10:13;96644.94;;;8.75;91.53
10135;BME280;5107;48.850;8.924;2023-12-14T10:13:00;96649.88;;;8.78;91.77
10135;BME280;5107;48.850;8.924;2023-12-14T10:15:26;96648.78;;;8.47;92.37
10135;BME280;5107;48.850;8.924;2023-12-14T10:17:53;96646.13;;;8.38;92.89
10135;BME280;5107;48.850;8.924;2023-12-14T10:20:22;96650.81;;;8.27;92.54
10135;BME280;5107;48.850;8.924;2023-12-14T10:22:49;96645.06;;;8.23;93.18
10135;BME280;5107;48.850;8.924;2023-12-14T10:25:15;96652.47;;;8.28;93.73
10135;BME280;5107;48.850;8.924;2023-12-14T10:27:40;96661.53;;;8.33;93.86
10135;BME280;5107;48.850;8.924;2023-12-14T10:30:09;96660.69;;;8.33;93.70
10135;BME280;5107;48.850;8.924;2023-12-14T10:32:37;96669.75;;;8.21;93.64
10135;BME280;5107;48.850;8.924;2023-12-14T10:35:03;96677.75;;;8.11;93.53
10135;BME280;5107;48.850;8.924;2023-12-14T10:37:29;96679.38;;;8.12;93.79
10135;BME280;5107;48.850;8.924;2023-12-14T10:39:55;96673.69;;;8.17;94.70
10135;BME280;5107;48.850;8.924;2023-12-14T10:42:21;96673.25;;;8.29;94.01
10135;BME280;5107;48.850;8.924;2023-12-14T10:44:49;96670.22;;;8.34;93.96
10135;BME280;5107;48.850;8.924;2023-12-14T10:47:19;96677.59;;;8.38;93.92
10135;BME280;5107;48.850;8.924;2023-12-14T10:49:47;96677.13;;;8.43;92.93
10135;BME280;5107;48.850;8.924;2023-12-14T10:52:16;96680.22;;;8.38;93.29
10135;BME280;5107;48.850;8.924;2023-12-14T10:54:42;96678.31;;;8.57;93.01
10135;BME280;5107;48.850;8.924;2023-12-14T10:57:09;96676.75;;;8.72;92.07
10135;BME280;5107;48.850;8.924;2023-12-14T10:59:35;96692.06;;;8.51;92.73
10135;BME280;5107;48.850;8.924;2023-12-14T11:02:07;96689.81;;;8.30;92.60
10135;BME280;5107;48.850;8.924;2023-12-14T11:04:54;96690.97;;;8.02;92.57
10135;BME280;5107;48.850;8.924;2023-12-14T11:07:56;96699.81;;;7.57;91.35
10135;BME280;5107;48.850;8.924;2023-12-14T11:10:41;96706.91;;;7.47;90.44
10135;BME280;5107;48.850;8.924;2023-12-14T11:13:11;96710.97;;;7.41;91.23
10135;BME280;5107;48.850;8.924;2023-12-14T11:15:45;96707.66;;;7.39;90.42
10135;BME280;5107;48.850;8.924;2023-12-14T11:23:15;96713.38;;;7.35;88.93
10135;BME280;5107;48.850;8.924;2023-12-14T11:25:48;96711.56;;;7.35;87.89
10135;BME280;5107;48.850;8.924;2023-12-14T11:28:14;96715.72;;;7.46;87.71
10135;BME280;5107;48.850;8.924;2023-12-14T11:30:39;96716.63;;;7.54;87.44
10135;BME280;5107;48.850;8.924;2023-12-14T11:33:05;96728.22;;;7.70;88.32
10135;BME280;5107;48.850;8.924;2023-12-14T11:35:30;96736.38;;;7.67;88.11
10135;BME280;5107;48.850;8.924;2023-12-14T11:37:56;96734.81;;;7.56;89.62
10135;BME280;5107;48.850;8.924;2023-12-14T11:40:27;96745.06;;;7.49;91.60
10135;BME280;5107;48.850;8.924;2023-12-14T11:42:59;96757.03;;;7.34;93.68
10135;BME280;5107;48.850;8.924;2023-12-14T11:45:24;96756.88;;;7.36;95.34
10135;BME280;5107;48.850;8.924;2023-12-14T11:47:51;96761.13;;;7.37;95.54
10135;BME280;5107;48.850;8.924;2023-12-14T11:50:16;96748.88;;;7.19;89.89
10135;BME280;5107;48.850;8.924;2023-12-14T11:52:42;96750.31;;;7.04;87.99
10135;BME280;5107;48.850;8.924;2023-12-14T11:55:12;96750.94;;;7.16;88.74
10135;BME280;5107;48.850;8.924;2023-12-14T11:57:38;96747.50;;;7.15;89.61
10135;BME280;5107;48.850;8.924;2023-12-14T12:00:04;96755.16;;;7.27;90.83
10135;BME280;5107;48.850;8.924;2023-12-14T12:02:32;96755.25;;;7.52;90.77
10135;BME280;5107;48.850;8.924;2023-12-14T12:04:57;96762.28;;;7.52;90.47
10135;BME280;5107;48.850;8.924;2023-12-14T12:07:23;96758.50;;;7.54;91.08
10135;BME280;5107;48.850;8.924;2023-12-14T12:09:48;96761.06;;;7.64;93.29
10135;BME280;5107;48.850;8.924;2023-12-14T12:12:13;96759.41;;;7.63;93.49
10135;BME280;5107;48.850;8.924;2023-12-14T12:14:39;96768.69;;;7.75;93.84
10135;BME280;5107;48.850;8.924;2023-12-14T12:17:06;96771.59;;;7.72;94.17
10135;BME280;5107;48.850;8.924;2023-12-14T12:19:36;96776.56;;;7.75;93.89
10135;BME280;5107;48.850;8.924;2023-12-14T12:22:02;96774.28;;;7.80;91.23
10135;BME280;5107;48.850;8.924;2023-12-14T12:24:27;96778.28;;;7.67;89.93
10135;BME280;5107;48.850;8.924;2023-12-14T12:26:54;96776.84;;;7.54;89.28
10135;BME280;5107;48.850;8.924;2023-12-14T12:29:19;96774.75;;;7.58;90.45
10135;BME280;5107;48.850;8.924;2023-12-14T12:31:44;96779.78;;;7.69;89.59
10135;BME280;5107;48.850;8.924;2023-12-14T12:34:11;96786.00;;;7.68;89.08
10135;BME280;5107;48.850;8.924;2023-12-14T12:36:36;96782.00;;;7.64;89.80
10135;BME280;5107;48.850;8.924;2023-12-14T12:39:02;96791.38;;;7.67;89.46
10135;BME280;5107;48.850;8.924;2023-12-14T12:41:28;96787.56;;;7.61;90.25
10135;BME280;5107;48.850;8.924;2023-12-14T12:43:53;96786.75;;;7.60;91.02
10135;BME280;5107;48.850;8.924;2023-12-14T12:46:19;96792.81;;;7.61;91.15
10135;BME280;5107;48.850;8.924;2023-12-14T12:48:44;96794.34;;;7.54;91.71
10135;BME280;5107;48.850;8.924;2023-12-14T12:51:12;96786.59;;;7.44;91.40
10135;BME280;5107;48.850;8.924;2023-12-14T12:53:37;96793.84;;;7.50;92.50
10135;BME280;5107;48.850;8.924;2023-12-14T12:56:03;96787.09;;;7.48;93.19
10135;BME280;5107;48.850;8.924;2023-12-14T12:58:28;96798.94;;;7.52;94.00
10135;BME280;5107;48.850;8.924;2023-12-14T13:00:53;96802.38;;;7.52;93.20
10135;BME280;5107;48.850;8.924;2023-12-14T13:03:19;96797.97;;;7.53;93.16
10135;BME280;5107;48.850;8.924;2023-12-14T13:05:44;96800.91;;;7.40;93.25
10135;BME280;5107;48.850;8.924;2023-12-14T13:08:10;96798.09;;;7.51;92.97
10135;BME280;5107;48.850;8.924;2023-12-14T13:10:35;96801.38;;;7.53;92.89
10135;BME280;5107;48.850;8.924;2023-12-14T13:13:03;96802.94;;;7.46;93.85
10135;BME280;5107;48.850;8.924;2023-12-14T13:15:32;96806.59;;;7.53;93.97
10135;BME280;5107;48.850;8.924;2023-12-14T13:17:57;96815.28;;;7.54;93.81
10135;BME280;5107;48.850;8.924;2023-12-14T13:20:24;96819.78;;;7.61;93.36
10135;BME280;5107;48.850;8.924;2023-12-14T13:22:49;96814.72;;;7.60;92.82
10135;BME280;5107;48.850;8.924;2023-12-14T13:25:15;96824.88;;;7.63;92.23